Ship Status Report: callsign BR3037

sailwx.info

Track history (hours):
 
Tides and Currents Weather Stations Pressure Air Temp Water Temp Dewpoint Dewpoint Depression Visibility Wind Speed Wind Dir Waves Ship Positions

Oceanographic research ship ()

Last reported at 2018-Jul-16 02:32 UTC. Time now 2018-Dec-13 16:45 UTC.
Position N 22°41' E 120°13'.
Warning: this ship's position is months out of date.

Length 39 m.

Type: Other ship. MMSI: 416926000.

Date/timePositionNaut miles runAvg speedWind from/ knotsBaromVisibWave heightAir tempDewpointWater temp
2018-Jul-16 02:32N 22°41' E 120°13'110.6
2018-Jul-16 02:28N 22°40' E 120°13'4 7.6
2018-Jul-16 01:57N 22°37' E 120°16'  
2018-Jul-13 12:41N 22°36' E 120°17'210.4
2018-Jul-13 12:28N 22°37' E 120°15'510.1
2018-Jul-13 12:00N 22°40' E 120°11'3 0.1
2018-Jul-12 02:32N 22°42' E 120°10'111.5
2018-Jul-12 02:29N 22°42' E 120°10'511.3
2018-Jul-12 02:01N 22°38' E 120°14'4 0.1
2018-Jul-10 06:31N 22°36' E 120°17'0 0.0
2018-Jul-10 05:19N 22°36' E 120°17'0 0.0
2018-Jul-10 04:49N 22°36' E 120°17'0 0.0
2018-Jul-10 04:01N 22°36' E 120°17'0 0.0
2018-Jul-10 03:12N 22°36' E 120°17'0 0.0
2018-Jul-10 02:23N 22°36' E 120°17'0 0.0
2018-Jul-10 01:59N 22°36' E 120°17'0 0.0
2018-Jul-10 01:17N 22°36' E 120°17'0 0.0
2018-Jul-09 08:55N 22°36' E 120°17'0 0.0
2018-Jul-09 08:19N 22°36' E 120°17'0 0.0
2018-Jul-09 07:37N 22°36' E 120°17'0 0.0
2018-Jul-09 07:25N 22°36' E 120°17'0 0.0
2018-Jul-09 06:55N 22°36' E 120°17'0 0.0
2018-Jul-09 06:25N 22°36' E 120°17'0 0.0
2018-Jul-09 05:55N 22°36' E 120°17'0 0.0
2018-Jul-09 05:25N 22°36' E 120°17'0 0.0
2018-Jul-09 04:49N 22°36' E 120°17'0 0.0
2018-Jul-09 04:30N 22°36' E 120°17'0 0.0
2018-Jul-09 04:00N 22°36' E 120°17'0 0.0
2018-Jul-09 03:30N 22°36' E 120°17'1 0.2
2018-Jul-09 00:55N 22°36' E 120°17'5 8.2
2018-Jul-09 00:20N 22°37' E 120°12'3 7.9
2018-Jul-09 00:00N 22°34' E 120°12'  
Track history (hours):
 
Tides and Currents Weather Stations Pressure Air Temp Water Temp Dewpoint Dewpoint Depression Visibility Wind Speed Wind Dir Waves Ship Positions

Oceanographic research ship ()

Last reported at 2018-Jul-16 02:32 UTC. Time now 2018-Dec-13 16:45 UTC.
Position N 22°41' E 120°13'.
Warning: this ship's position is months out of date.

Length 39 m.

Type: Other ship. MMSI: 416926000.

Date/timePositionNaut miles runAvg speedWind from/ knotsBaromVisibWave heightAir tempDewpointWater temp
2018-Jul-16 02:32N 22°41' E 120°13'110.6
2018-Jul-16 02:28N 22°40' E 120°13'4 7.6
2018-Jul-16 01:57N 22°37' E 120°16'  
2018-Jul-13 12:41N 22°36' E 120°17'210.4
2018-Jul-13 12:28N 22°37' E 120°15'510.1
2018-Jul-13 12:00N 22°40' E 120°11'3 0.1
2018-Jul-12 02:32N 22°42' E 120°10'111.5
2018-Jul-12 02:29N 22°42' E 120°10'511.3
2018-Jul-12 02:01N 22°38' E 120°14'4 0.1
2018-Jul-10 06:31N 22°36' E 120°17'0 0.0
2018-Jul-10 05:19N 22°36' E 120°17'0 0.0
2018-Jul-10 04:49N 22°36' E 120°17'0 0.0
2018-Jul-10 04:01N 22°36' E 120°17'0 0.0
2018-Jul-10 03:12N 22°36' E 120°17'0 0.0
2018-Jul-10 02:23N 22°36' E 120°17'0 0.0
2018-Jul-10 01:59N 22°36' E 120°17'0 0.0
2018-Jul-10 01:17N 22°36' E 120°17'0 0.0
2018-Jul-09 08:55N 22°36' E 120°17'0 0.0
2018-Jul-09 08:19N 22°36' E 120°17'0 0.0
2018-Jul-09 07:37N 22°36' E 120°17'0 0.0
2018-Jul-09 07:25N 22°36' E 120°17'0 0.0
2018-Jul-09 06:55N 22°36' E 120°17'0 0.0
2018-Jul-09 06:25N 22°36' E 120°17'0 0.0
2018-Jul-09 05:55N 22°36' E 120°17'0 0.0
2018-Jul-09 05:25N 22°36' E 120°17'0 0.0
2018-Jul-09 04:49N 22°36' E 120°17'0 0.0
2018-Jul-09 04:30N 22°36' E 120°17'0 0.0
2018-Jul-09 04:00N 22°36' E 120°17'0 0.0
2018-Jul-09 03:30N 22°36' E 120°17'1 0.2
2018-Jul-09 00:55N 22°36' E 120°17'5 8.2
2018-Jul-09 00:20N 22°37' E 120°12'3 7.9
2018-Jul-09 00:00N 22°34' E 120°12'  

Dump ship's entire track history